Brampton, North Dakota
Current Conditions -  °F | °C
As of 2:55 AM on Saturday 25 Oct 2014 (Local Time) from KGWR Reporting Station
Clear Clear  
Wind Chill: 44°   Ceiling: Unl
Heat Index: 48°   Visibility: 10mi
Dew Point: 32°   Wind: 9mph
Humidity: 54%   Direction: 280°W
Pressure: 30.05"   Gusts: NA
Location:  46.0772°N, 97.8609°W
Report Text: KGWR 250755Z AUTO 28008KT 10SM CLR 09/00 A3005 RMK A01 P000
Loading
Personal Weather Stations






























Interactive Weather Map
Tropical Storm Tracking
New forecast layout! Learn more

10-Day Weather Forecast

Advertisements
Track Severe Weather on mobile